sensor_id;sensor_type;location;lat;lon;timestamp;temperature;humidity
70734;DHT22;58320;48.804;9.252;2022-09-09T00:09:43;14.60;78.60
70734;DHT22;58320;48.804;9.252;2022-09-09T00:12:20;14.50;78.50
70734;DHT22;58320;48.804;9.252;2022-09-09T00:15:07;14.50;78.60
70734;DHT22;58320;48.804;9.252;2022-09-09T00:17:59;14.50;78.90
70734;DHT22;58320;48.804;9.252;2022-09-09T00:23:19;14.50;78.30
70734;DHT22;58320;48.804;9.252;2022-09-09T00:26:25;14.50;77.80
70734;DHT22;58320;48.804;9.252;2022-09-09T00:31:33;14.60;77.30
70734;DHT22;58320;48.804;9.252;2022-09-09T00:36:37;14.70;77.20
70734;DHT22;58320;48.804;9.252;2022-09-09T00:39:04;14.70;76.80
70734;DHT22;58320;48.804;9.252;2022-09-09T00:44:37;14.80;76.20
70734;DHT22;58320;48.804;9.252;2022-09-09T00:52:43;15.00;75.20
70734;DHT22;58320;48.804;9.252;2022-09-09T00:58:10;15.10;73.80
70734;DHT22;58320;48.804;9.252;2022-09-09T01:00:48;15.20;73.30
70734;DHT22;58320;48.804;9.252;2022-09-09T01:03:36;15.20;72.50
70734;DHT22;58320;48.804;9.252;2022-09-09T01:06:20;15.30;71.60
70734;DHT22;58320;48.804;9.252;2022-09-09T01:12:28;15.40;70.80
70734;DHT22;58320;48.804;9.252;2022-09-09T01:15:13;15.50;70.60
70734;DHT22;58320;48.804;9.252;2022-09-09T01:26:52;15.50;69.50
70734;DHT22;58320;48.804;9.252;2022-09-09T01:29:22;15.60;68.90
70734;DHT22;58320;48.804;9.252;2022-09-09T01:34:18;15.70;68.10
70734;DHT22;58320;48.804;9.252;2022-09-09T01:36:59;15.70;68.00
70734;DHT22;58320;48.804;9.252;2022-09-09T01:39:30;15.80;67.30
70734;DHT22;58320;48.804;9.252;2022-09-09T01:41:57;15.90;66.80
70734;DHT22;58320;48.804;9.252;2022-09-09T01:44:24;15.90;66.70
70734;DHT22;58320;48.804;9.252;2022-09-09T01:46:51;15.90;66.60
70734;DHT22;58320;48.804;9.252;2022-09-09T01:49:17;15.90;67.00
70734;DHT22;58320;48.804;9.252;2022-09-09T01:51:46;15.90;66.90
70734;DHT22;58320;48.804;9.252;2022-09-09T01:54:15;15.90;66.90
70734;DHT22;58320;48.804;9.252;2022-09-09T02:00:07;15.80;66.90
70734;DHT22;58320;48.804;9.252;2022-09-09T02:05:45;15.80;67.60
70734;DHT22;58320;48.804;9.252;2022-09-09T02:08:23;15.70;67.90
70734;DHT22;58320;48.804;9.252;2022-09-09T02:10:58;15.60;68.40
70734;DHT22;58320;48.804;9.252;2022-09-09T02:13:29;15.50;68.70
70734;DHT22;58320;48.804;9.252;2022-09-09T02:15:59;15.40;68.90
70734;DHT22;58320;48.804;9.252;2022-09-09T02:18:51;15.40;69.20
70734;DHT22;58320;48.804;9.252;2022-09-09T02:21:39;15.30;69.70
70734;DHT22;58320;48.804;9.252;2022-09-09T02:24:08;15.20;69.70
70734;DHT22;58320;48.804;9.252;2022-09-09T02:26:39;15.20;69.60
70734;DHT22;58320;48.804;9.252;2022-09-09T02:29:11;15.10;69.90
70734;DHT22;58320;48.804;9.252;2022-09-09T02:31:41;15.10;70.20
70734;DHT22;58320;48.804;9.252;2022-09-09T02:34:09;15.00;70.50
70734;DHT22;58320;48.804;9.252;2022-09-09T02:36:37;14.90;70.90
70734;DHT22;58320;48.804;9.252;2022-09-09T02:39:08;14.90;71.10
70734;DHT22;58320;48.804;9.252;2022-09-09T02:41:37;14.80;71.30
70734;DHT22;58320;48.804;9.252;2022-09-09T02:44:12;14.80;71.40
70734;DHT22;58320;48.804;9.252;2022-09-09T02:52:08;14.80;72.10
70734;DHT22;58320;48.804;9.252;2022-09-09T02:54:42;14.90;71.90
70734;DHT22;58320;48.804;9.252;2022-09-09T02:57:10;14.80;72.10
70734;DHT22;58320;48.804;9.252;2022-09-09T02:59:39;14.70;72.30
70734;DHT22;58320;48.804;9.252;2022-09-09T03:02:06;14.70;72.50
70734;DHT22;58320;48.804;9.252;2022-09-09T03:04:32;14.60;73.00
70734;DHT22;58320;48.804;9.252;2022-09-09T03:06:58;14.60;73.10
70734;DHT22;58320;48.804;9.252;2022-09-09T03:09:24;14.60;73.20
70734;DHT22;58320;48.804;9.252;2022-09-09T03:11:51;14.60;73.10
70734;DHT22;58320;48.804;9.252;2022-09-09T03:14:18;14.70;72.60
70734;DHT22;58320;48.804;9.252;2022-09-09T03:16:47;14.80;72.10
70734;DHT22;58320;48.804;9.252;2022-09-09T03:19:13;14.80;71.70
70734;DHT22;58320;48.804;9.252;2022-09-09T03:21:39;14.90;71.40
70734;DHT22;58320;48.804;9.252;2022-09-09T03:24:05;15.00;70.80
70734;DHT22;58320;48.804;9.252;2022-09-09T03:26:32;15.00;70.80
70734;DHT22;58320;48.804;9.252;2022-09-09T03:28:58;15.10;70.80
70734;DHT22;58320;48.804;9.252;2022-09-09T03:31:26;15.10;70.70
70734;DHT22;58320;48.804;9.252;2022-09-09T03:33:56;15.10;70.80
70734;DHT22;58320;48.804;9.252;2022-09-09T03:36:24;15.10;70.80
70734;DHT22;58320;48.804;9.252;2022-09-09T03:38:51;15.10;70.50
70734;DHT22;58320;48.804;9.252;2022-09-09T03:41:18;15.10;70.60
70734;DHT22;58320;48.804;9.252;2022-09-09T03:43:43;15.20;70.30
70734;DHT22;58320;48.804;9.252;2022-09-09T03:46:10;15.20;70.30
70734;DHT22;58320;48.804;9.252;2022-09-09T03:48:36;15.20;70.20
70734;DHT22;58320;48.804;9.252;2022-09-09T03:51:01;15.20;70.10
70734;DHT22;58320;48.804;9.252;2022-09-09T03:53:29;15.20;70.20
70734;DHT22;58320;48.804;9.252;2022-09-09T03:55:56;15.20;70.30
70734;DHT22;58320;48.804;9.252;2022-09-09T03:58:25;15.20;70.50
70734;DHT22;58320;48.804;9.252;2022-09-09T04:00:59;15.20;71.00
70734;DHT22;58320;48.804;9.252;2022-09-09T04:03:30;15.10;71.40
70734;DHT22;58320;48.804;9.252;2022-09-09T04:05:57;15.00;71.60
70734;DHT22;58320;48.804;9.252;2022-09-09T04:08:25;15.00;71.60
70734;DHT22;58320;48.804;9.252;2022-09-09T04:10:51;15.00;71.70
70734;DHT22;58320;48.804;9.252;2022-09-09T04:13:18;15.00;72.00
70734;DHT22;58320;48.804;9.252;2022-09-09T04:15:54;15.00;72.00
70734;DHT22;58320;48.804;9.252;2022-09-09T04:18:22;14.90;72.40
70734;DHT22;58320;48.804;9.252;2022-09-09T04:20:49;14.90;72.60
70734;DHT22;58320;48.804;9.252;2022-09-09T04:23:16;14.90;72.80
70734;DHT22;58320;48.804;9.252;2022-09-09T04:25:54;14.80;72.90
70734;DHT22;58320;48.804;9.252;2022-09-09T04:28:23;14.80;73.00
70734;DHT22;58320;48.804;9.252;2022-09-09T04:30:50;14.80;73.10
70734;DHT22;58320;48.804;9.252;2022-09-09T04:33:18;14.80;73.10
70734;DHT22;58320;48.804;9.252;2022-09-09T04:35:46;14.80;73.20
70734;DHT22;58320;48.804;9.252;2022-09-09T04:38:14;14.80;73.10
70734;DHT22;58320;48.804;9.252;2022-09-09T04:40:45;14.80;73.00
70734;DHT22;58320;48.804;9.252;2022-09-09T04:43:12;14.80;73.00
70734;DHT22;58320;48.804;9.252;2022-09-09T04:45:40;14.80;73.00
70734;DHT22;58320;48.804;9.252;2022-09-09T04:48:06;14.80;72.80
70734;DHT22;58320;48.804;9.252;2022-09-09T04:50:33;14.80;72.70
70734;DHT22;58320;48.804;9.252;2022-09-09T04:53:03;14.90;72.70
70734;DHT22;58320;48.804;9.252;2022-09-09T04:55:30;14.80;72.70
70734;DHT22;58320;48.804;9.252;2022-09-09T04:57:56;14.80;72.60
70734;DHT22;58320;48.804;9.252;2022-09-09T05:00:23;14.80;72.80
70734;DHT22;58320;48.804;9.252;2022-09-09T05:02:50;14.80;73.00
70734;DHT22;58320;48.804;9.252;2022-09-09T05:05:16;14.70;73.20
70734;DHT22;58320;48.804;9.252;2022-09-09T05:07:42;14.70;73.40
70734;DHT22;58320;48.804;9.252;2022-09-09T05:10:09;14.70;73.50
70734;DHT22;58320;48.804;9.252;2022-09-09T05:12:35;14.70;73.60
70734;DHT22;58320;48.804;9.252;2022-09-09T05:15:01;14.70;73.50
70734;DHT22;58320;48.804;9.252;2022-09-09T05:17:27;14.70;73.70
70734;DHT22;58320;48.804;9.252;2022-09-09T05:19:54;14.70;73.80
70734;DHT22;58320;48.804;9.252;2022-09-09T05:22:20;14.70;73.90
70734;DHT22;58320;48.804;9.252;2022-09-09T05:24:46;14.70;73.90
70734;DHT22;58320;48.804;9.252;2022-09-09T05:27:13;14.80;73.80
70734;DHT22;58320;48.804;9.252;2022-09-09T05:29:39;14.90;73.60
70734;DHT22;58320;48.804;9.252;2022-09-09T05:32:08;15.00;73.40
70734;DHT22;58320;48.804;9.252;2022-09-09T05:34:35;15.00;72.70
70734;DHT22;58320;48.804;9.252;2022-09-09T05:37:03;15.10;72.70
70734;DHT22;58320;48.804;9.252;2022-09-09T05:39:29;15.20;72.60
70734;DHT22;58320;48.804;9.252;2022-09-09T05:41:55;15.20;72.30
70734;DHT22;58320;48.804;9.252;2022-09-09T05:44:21;15.30;71.80
70734;DHT22;58320;48.804;9.252;2022-09-09T05:46:49;15.40;71.60
70734;DHT22;58320;48.804;9.252;2022-09-09T05:49:15;15.50;71.40
70734;DHT22;58320;48.804;9.252;2022-09-09T05:51:41;15.60;71.00
70734;DHT22;58320;48.804;9.252;2022-09-09T05:54:08;15.70;70.80
70734;DHT22;58320;48.804;9.252;2022-09-09T05:56:34;15.70;70.40
70734;DHT22;58320;48.804;9.252;2022-09-09T05:59:00;15.70;70.50
70734;DHT22;58320;48.804;9.252;2022-09-09T06:01:32;15.70;70.30
70734;DHT22;58320;48.804;9.252;2022-09-09T06:03:59;15.70;70.60
70734;DHT22;58320;48.804;9.252;2022-09-09T06:06:29;15.80;70.50
70734;DHT22;58320;48.804;9.252;2022-09-09T06:08:57;15.80;70.20
70734;DHT22;58320;48.804;9.252;2022-09-09T06:11:28;15.90;70.20
70734;DHT22;58320;48.804;9.252;2022-09-09T06:13:56;15.90;70.30
70734;DHT22;58320;48.804;9.252;2022-09-09T06:16:24;16.00;70.40
70734;DHT22;58320;48.804;9.252;2022-09-09T06:18:53;16.10;69.90
70734;DHT22;58320;48.804;9.252;2022-09-09T06:21:27;16.10;69.90
70734;DHT22;58320;48.804;9.252;2022-09-09T06:23:56;16.20;69.50
70734;DHT22;58320;48.804;9.252;2022-09-09T06:26:36;16.20;69.30
70734;DHT22;58320;48.804;9.252;2022-09-09T06:29:06;16.20;69.40
70734;DHT22;58320;48.804;9.252;2022-09-09T06:31:33;16.30;69.40
70734;DHT22;58320;48.804;9.252;2022-09-09T06:34:04;16.40;69.40
70734;DHT22;58320;48.804;9.252;2022-09-09T06:36:33;16.50;69.40
70734;DHT22;58320;48.804;9.252;2022-09-09T06:39:01;16.50;69.10
70734;DHT22;58320;48.804;9.252;2022-09-09T06:41:28;16.60;68.70
70734;DHT22;58320;48.804;9.252;2022-09-09T06:43:55;16.70;68.90
70734;DHT22;58320;48.804;9.252;2022-09-09T06:46:22;16.70;68.20
70734;DHT22;58320;48.804;9.252;2022-09-09T06:48:53;16.80;68.00
70734;DHT22;58320;48.804;9.252;2022-09-09T06:51:22;16.90;67.90
70734;DHT22;58320;48.804;9.252;2022-09-09T06:53:54;17.20;67.70
70734;DHT22;58320;48.804;9.252;2022-09-09T06:56:33;17.30;67.00
70734;DHT22;58320;48.804;9.252;2022-09-09T06:59:04;17.20;67.00
70734;DHT22;58320;48.804;9.252;2022-09-09T07:01:36;17.20;67.10
70734;DHT22;58320;48.804;9.252;2022-09-09T07:04:06;17.30;67.30
70734;DHT22;58320;48.804;9.252;2022-09-09T07:06:39;17.40;67.00
70734;DHT22;58320;48.804;9.252;2022-09-09T07:09:08;17.50;67.00
70734;DHT22;58320;48.804;9.252;2022-09-09T07:11:49;17.50;66.00
70734;DHT22;58320;48.804;9.252;2022-09-09T07:14:18;17.60;67.10
70734;DHT22;58320;48.804;9.252;2022-09-09T07:16:45;17.70;66.40
70734;DHT22;58320;48.804;9.252;2022-09-09T07:19:11;17.80;65.90
70734;DHT22;58320;48.804;9.252;2022-09-09T07:21:38;17.80;65.80
70734;DHT22;58320;48.804;9.252;2022-09-09T07:24:06;17.80;65.60
70734;DHT22;58320;48.804;9.252;2022-09-09T07:26:36;17.90;65.10
70734;DHT22;58320;48.804;9.252;2022-09-09T07:29:03;18.10;65.50
70734;DHT22;58320;48.804;9.252;2022-09-09T07:31:32;18.30;64.60
70734;DHT22;58320;48.804;9.252;2022-09-09T07:34:00;18.50;64.10
70734;DHT22;58320;48.804;9.252;2022-09-09T07:36:28;18.80;63.70
70734;DHT22;58320;48.804;9.252;2022-09-09T07:38:58;18.90;62.40
70734;DHT22;58320;48.804;9.252;2022-09-09T07:41:38;19.00;62.70
70734;DHT22;58320;48.804;9.252;2022-09-09T07:44:21;19.20;61.90
70734;DHT22;58320;48.804;9.252;2022-09-09T07:46:49;18.90;62.30
70734;DHT22;58320;48.804;9.252;2022-09-09T07:49:15;18.80;62.90
70734;DHT22;58320;48.804;9.252;2022-09-09T07:51:43;19.00;63.10
70734;DHT22;58320;48.804;9.252;2022-09-09T07:54:12;19.20;61.90
70734;DHT22;58320;48.804;9.252;2022-09-09T07:56:39;19.40;61.50
70734;DHT22;58320;48.804;9.252;2022-09-09T07:59:06;19.40;60.90
70734;DHT22;58320;48.804;9.252;2022-09-09T08:01:44;19.20;61.70
70734;DHT22;58320;48.804;9.252;2022-09-09T08:04:14;18.90;62.60
70734;DHT22;58320;48.804;9.252;2022-09-09T08:06:45;18.70;63.60
70734;DHT22;58320;48.804;9.252;2022-09-09T08:09:15;18.90;63.50
70734;DHT22;58320;48.804;9.252;2022-09-09T08:11:42;19.30;62.30
70734;DHT22;58320;48.804;9.252;2022-09-09T08:14:09;19.70;61.30
70734;DHT22;58320;48.804;9.252;2022-09-09T08:16:38;20.10;60.10
70734;DHT22;58320;48.804;9.252;2022-09-09T08:19:09;20.40;59.30
70734;DHT22;58320;48.804;9.252;2022-09-09T08:21:37;20.60;58.40
70734;DHT22;58320;48.804;9.252;2022-09-09T08:24:06;20.50;59.00
70734;DHT22;58320;48.804;9.252;2022-09-09T08:26:44;20.50;58.40
70734;DHT22;58320;48.804;9.252;2022-09-09T08:29:13;20.70;57.30
70734;DHT22;58320;48.804;9.252;2022-09-09T08:31:44;20.80;57.40
70734;DHT22;58320;48.804;9.252;2022-09-09T08:34:11;20.80;57.40
70734;DHT22;58320;48.804;9.252;2022-09-09T08:36:42;20.70;58.30
70734;DHT22;58320;48.804;9.252;2022-09-09T08:39:11;20.70;58.30
70734;DHT22;58320;48.804;9.252;2022-09-09T08:50:36;21.70;55.30
70734;DHT22;58320;48.804;9.252;2022-09-09T08:53:22;21.90;56.00
70734;DHT22;58320;48.804;9.252;2022-09-09T08:56:02;22.00;54.60
70734;DHT22;58320;48.804;9.252;2022-09-09T08:58:35;22.20;53.50
70734;DHT22;58320;48.804;9.252;2022-09-09T09:12:44;21.20;53.60
70734;DHT22;58320;48.804;9.252;2022-09-09T09:15:24;21.60;53.10
70734;DHT22;58320;48.804;9.252;2022-09-09T09:17:52;21.70;52.30
70734;DHT22;58320;48.804;9.252;2022-09-09T09:20:23;21.70;51.50
70734;DHT22;58320;48.804;9.252;2022-09-09T09:23:00;21.80;49.80
70734;DHT22;58320;48.804;9.252;2022-09-09T09:25:34;21.70;50.20
70734;DHT22;58320;48.804;9.252;2022-09-09T09:28:17;21.70;49.20
70734;DHT22;58320;48.804;9.252;2022-09-09T09:33:36;21.10;50.40
70734;DHT22;58320;48.804;9.252;2022-09-09T09:36:11;20.90;52.40
70734;DHT22;58320;48.804;9.252;2022-09-09T09:38:55;20.30;54.80
70734;DHT22;58320;48.804;9.252;2022-09-09T09:41:35;19.70;56.50
70734;DHT22;58320;48.804;9.252;2022-09-09T09:44:03;19.30;56.40
70734;DHT22;58320;48.804;9.252;2022-09-09T09:46:29;18.60;60.30
70734;DHT22;58320;48.804;9.252;2022-09-09T09:48:58;17.60;65.00
70734;DHT22;58320;48.804;9.252;2022-09-09T09:51:31;17.10;69.60
70734;DHT22;58320;48.804;9.252;2022-09-09T09:54:28;17.10;68.00
70734;DHT22;58320;48.804;9.252;2022-09-09T09:56:56;17.40;64.00
70734;DHT22;58320;48.804;9.252;2022-09-09T10:02:05;18.20;60.30
70734;DHT22;58320;48.804;9.252;2022-09-09T10:04:36;18.30;60.70
70734;DHT22;58320;48.804;9.252;2022-09-09T10:07:11;18.70;59.90
70734;DHT22;58320;48.804;9.252;2022-09-09T10:09:38;19.00;59.10
70734;DHT22;58320;48.804;9.252;2022-09-09T10:15:05;19.90;58.00
70734;DHT22;58320;48.804;9.252;2022-09-09T10:30:09;21.10;53.10
70734;DHT22;58320;48.804;9.252;2022-09-09T10:33:09;21.30;54.50
70734;DHT22;58320;48.804;9.252;2022-09-09T10:57:25;23.60;49.40
70734;DHT22;58320;48.804;9.252;2022-09-09T11:00:01;23.70;49.70
70734;DHT22;58320;48.804;9.252;2022-09-09T11:02:34;24.00;48.70
70734;DHT22;58320;48.804;9.252;2022-09-09T11:05:05;24.20;48.00
70734;DHT22;58320;48.804;9.252;2022-09-09T11:13:14;24.20;47.20
70734;DHT22;58320;48.804;9.252;2022-09-09T11:15:50;24.30;49.00
70734;DHT22;58320;48.804;9.252;2022-09-09T11:18:22;24.40;46.80
70734;DHT22;58320;48.804;9.252;2022-09-09T11:20:51;24.50;46.30
70734;DHT22;58320;48.804;9.252;2022-09-09T11:23:27;24.20;46.60
70734;DHT22;58320;48.804;9.252;2022-09-09T11:26:06;23.60;47.40
70734;DHT22;58320;48.804;9.252;2022-09-09T11:39:56;20.50;50.30
70734;DHT22;58320;48.804;9.252;2022-09-09T11:42:30;20.50;50.20
70734;DHT22;58320;48.804;9.252;2022-09-09T11:44:56;20.40;50.40
70734;DHT22;58320;48.804;9.252;2022-09-09T11:47:28;20.40;50.70
70734;DHT22;58320;48.804;9.252;2022-09-09T11:52:45;20.50;50.20
70734;DHT22;58320;48.804;9.252;2022-09-09T11:58:01;20.60;50.10
70734;DHT22;58320;48.804;9.252;2022-09-09T12:00:45;20.80;50.10
70734;DHT22;58320;48.804;9.252;2022-09-09T12:06:20;21.20;49.00
70734;DHT22;58320;48.804;9.252;2022-09-09T12:08:55;21.20;49.00
70734;DHT22;58320;48.804;9.252;2022-09-09T12:11:33;21.50;49.50
70734;DHT22;58320;48.804;9.252;2022-09-09T12:14:00;21.60;46.00
70734;DHT22;58320;48.804;9.252;2022-09-09T12:16:35;21.90;46.80
70734;DHT22;58320;48.804;9.252;2022-09-09T12:19:15;22.80;45.10
70734;DHT22;58320;48.804;9.252;2022-09-09T12:22:05;24.00;42.30
70734;DHT22;58320;48.804;9.252;2022-09-09T12:24:40;24.30;42.70
70734;DHT22;58320;48.804;9.252;2022-09-09T12:30:51;23.40;42.40
70734;DHT22;58320;48.804;9.252;2022-09-09T12:33:34;23.90;41.60
70734;DHT22;58320;48.804;9.252;2022-09-09T12:36:03;25.00;40.60
70734;DHT22;58320;48.804;9.252;2022-09-09T12:38:36;26.00;39.20
70734;DHT22;58320;48.804;9.252;2022-09-09T12:41:03;26.90;37.90
70734;DHT22;58320;48.804;9.252;2022-09-09T12:43:29;27.10;38.00
70734;DHT22;58320;48.804;9.252;2022-09-09T12:45:59;26.90;37.00
70734;DHT22;58320;48.804;9.252;2022-09-09T12:48:39;26.10;38.10
70734;DHT22;58320;48.804;9.252;2022-09-09T12:51:24;25.10;38.10
70734;DHT22;58320;48.804;9.252;2022-09-09T12:53:53;24.00;39.20
70734;DHT22;58320;48.804;9.252;2022-09-09T12:56:21;23.40;40.20
70734;DHT22;58320;48.804;9.252;2022-09-09T12:58:52;23.00;41.30
70734;DHT22;58320;48.804;9.252;2022-09-09T13:03:52;22.80;43.00
70734;DHT22;58320;48.804;9.252;2022-09-09T13:06:22;22.80;42.90
70734;DHT22;58320;48.804;9.252;2022-09-09T13:08:53;23.80;41.90
70734;DHT22;58320;48.804;9.252;2022-09-09T13:11:39;24.30;41.20
70734;DHT22;58320;48.804;9.252;2022-09-09T13:14:29;24.20;41.20
70734;DHT22;58320;48.804;9.252;2022-09-09T13:16:59;25.00;40.50
70734;DHT22;58320;48.804;9.252;2022-09-09T13:19:30;25.80;38.60
70734;DHT22;58320;48.804;9.252;2022-09-09T13:22:00;25.10;39.20
70734;DHT22;58320;48.804;9.252;2022-09-09T13:25:25;24.10;41.20
70734;DHT22;58320;48.804;9.252;2022-09-09T13:30:36;22.90;42.80
70734;DHT22;58320;48.804;9.252;2022-09-09T13:35:57;22.70;44.50
70734;DHT22;58320;48.804;9.252;2022-09-09T13:38:31;23.00;43.50
70734;DHT22;58320;48.804;9.252;2022-09-09T13:41:02;23.70;42.70
70734;DHT22;58320;48.804;9.252;2022-09-09T13:43:38;24.50;41.20
70734;DHT22;58320;48.804;9.252;2022-09-09T13:46:32;25.50;39.80
70734;DHT22;58320;48.804;9.252;2022-09-09T13:51:44;26.40;37.40
70734;DHT22;58320;48.804;9.252;2022-09-09T13:54:14;25.20;39.40
70734;DHT22;58320;48.804;9.252;2022-09-09T13:56:42;24.30;41.30
70734;DHT22;58320;48.804;9.252;2022-09-09T13:59:16;23.60;41.40
70734;DHT22;58320;48.804;9.252;2022-09-09T14:01:45;23.50;41.80
70734;DHT22;58320;48.804;9.252;2022-09-09T14:04:11;23.50;40.70
70734;DHT22;58320;48.804;9.252;2022-09-09T14:06:38;23.40;40.60
70734;DHT22;58320;48.804;9.252;2022-09-09T14:09:11;23.60;40.60
70734;DHT22;58320;48.804;9.252;2022-09-09T14:11:38;25.00;39.40
70734;DHT22;58320;48.804;9.252;2022-09-09T14:14:06;25.80;38.30
70734;DHT22;58320;48.804;9.252;2022-09-09T14:16:32;26.80;36.20
70734;DHT22;58320;48.804;9.252;2022-09-09T14:18:58;27.10;36.10
70734;DHT22;58320;48.804;9.252;2022-09-09T14:21:25;26.90;36.00
70734;DHT22;58320;48.804;9.252;2022-09-09T14:23:52;27.30;35.70
70734;DHT22;58320;48.804;9.252;2022-09-09T14:26:23;27.60;34.80
70734;DHT22;58320;48.804;9.252;2022-09-09T14:28:50;27.30;34.60
70734;DHT22;58320;48.804;9.252;2022-09-09T14:31:17;27.20;34.70
70734;DHT22;58320;48.804;9.252;2022-09-09T14:33:47;27.60;34.10
70734;DHT22;58320;48.804;9.252;2022-09-09T14:36:17;27.20;34.60
70734;DHT22;58320;48.804;9.252;2022-09-09T14:38:44;26.20;35.60
70734;DHT22;58320;48.804;9.252;2022-09-09T14:41:13;25.30;37.70
70734;DHT22;58320;48.804;9.252;2022-09-09T14:43:49;24.70;38.30
70734;DHT22;58320;48.804;9.252;2022-09-09T14:46:22;25.70;37.10
70734;DHT22;58320;48.804;9.252;2022-09-09T14:48:51;26.10;36.50
70734;DHT22;58320;48.804;9.252;2022-09-09T14:51:22;25.70;37.20
70734;DHT22;58320;48.804;9.252;2022-09-09T14:53:59;25.30;37.80
70734;DHT22;58320;48.804;9.252;2022-09-09T14:56:32;25.40;38.00
70734;DHT22;58320;48.804;9.252;2022-09-09T14:59:03;26.10;36.70
70734;DHT22;58320;48.804;9.252;2022-09-09T15:01:34;26.70;36.20
70734;DHT22;58320;48.804;9.252;2022-09-09T15:04:03;26.50;36.90
70734;DHT22;58320;48.804;9.252;2022-09-09T15:06:34;26.90;35.50
70734;DHT22;58320;48.804;9.252;2022-09-09T15:09:08;27.60;34.60
70734;DHT22;58320;48.804;9.252;2022-09-09T15:11:36;28.00;34.00
70734;DHT22;58320;48.804;9.252;2022-09-09T15:14:04;28.30;33.70
70734;DHT22;58320;48.804;9.252;2022-09-09T15:16:34;27.60;33.40
70734;DHT22;58320;48.804;9.252;2022-09-09T15:19:04;27.20;34.00
70734;DHT22;58320;48.804;9.252;2022-09-09T15:21:36;27.30;34.10
70734;DHT22;58320;48.804;9.252;2022-09-09T15:24:06;26.80;34.50
70734;DHT22;58320;48.804;9.252;2022-09-09T15:26:34;25.80;36.00
70734;DHT22;58320;48.804;9.252;2022-09-09T15:29:04;24.80;37.30
70734;DHT22;58320;48.804;9.252;2022-09-09T15:31:31;24.20;38.50
70734;DHT22;58320;48.804;9.252;2022-09-09T15:34:05;23.70;39.20
70734;DHT22;58320;48.804;9.252;2022-09-09T15:36:43;23.20;40.10
70734;DHT22;58320;48.804;9.252;2022-09-09T15:39:14;22.90;40.20
70734;DHT22;58320;48.804;9.252;2022-09-09T15:41:46;22.80;40.70
70734;DHT22;58320;48.804;9.252;2022-09-09T15:44:14;23.40;40.00
70734;DHT22;58320;48.804;9.252;2022-09-09T15:46:44;23.50;39.80
70734;DHT22;58320;48.804;9.252;2022-09-09T15:49:17;23.10;40.30
70734;DHT22;58320;48.804;9.252;2022-09-09T15:51:47;22.80;41.30
70734;DHT22;58320;48.804;9.252;2022-09-09T15:54:35;22.40;42.00
70734;DHT22;58320;48.804;9.252;2022-09-09T15:57:07;22.00;42.80
70734;DHT22;58320;48.804;9.252;2022-09-09T15:59:36;21.70;43.50
70734;DHT22;58320;48.804;9.252;2022-09-09T16:02:04;21.60;43.90
70734;DHT22;58320;48.804;9.252;2022-09-09T16:04:38;21.50;44.30
70734;DHT22;58320;48.804;9.252;2022-09-09T16:07:06;21.40;44.40
70734;DHT22;58320;48.804;9.252;2022-09-09T16:09:34;21.40;44.50
70734;DHT22;58320;48.804;9.252;2022-09-09T16:12:10;21.40;44.70
70734;DHT22;58320;48.804;9.252;2022-09-09T16:14:39;21.40;44.70
70734;DHT22;58320;48.804;9.252;2022-09-09T16:17:13;21.30;44.70
70734;DHT22;58320;48.804;9.252;2022-09-09T16:19:41;21.30;44.20
70734;DHT22;58320;48.804;9.252;2022-09-09T16:22:08;21.30;44.50
70734;DHT22;58320;48.804;9.252;2022-09-09T16:24:36;21.20;44.00
70734;DHT22;58320;48.804;9.252;2022-09-09T16:27:08;21.20;44.30
70734;DHT22;58320;48.804;9.252;2022-09-09T16:29:35;21.20;44.30
70734;DHT22;58320;48.804;9.252;2022-09-09T16:32:05;21.10;44.40
70734;DHT22;58320;48.804;9.252;2022-09-09T16:34:32;21.10;44.50
70734;DHT22;58320;48.804;9.252;2022-09-09T16:36:59;21.00;44.90
70734;DHT22;58320;48.804;9.252;2022-09-09T16:39:32;21.00;45.30
70734;DHT22;58320;48.804;9.252;2022-09-09T16:42:04;20.90;46.20
70734;DHT22;58320;48.804;9.252;2022-09-09T16:44:32;20.70;46.80
70734;DHT22;58320;48.804;9.252;2022-09-09T16:46:59;20.40;47.60
70734;DHT22;58320;48.804;9.252;2022-09-09T16:49:26;20.10;48.60
70734;DHT22;58320;48.804;9.252;2022-09-09T16:51:56;19.80;49.50
70734;DHT22;58320;48.804;9.252;2022-09-09T16:54:24;19.60;50.20
70734;DHT22;58320;48.804;9.252;2022-09-09T16:56:53;19.50;50.40
70734;DHT22;58320;48.804;9.252;2022-09-09T16:59:23;19.50;50.40
70734;DHT22;58320;48.804;9.252;2022-09-09T17:01:50;19.40;49.10
70734;DHT22;58320;48.804;9.252;2022-09-09T17:04:18;19.30;49.90
70734;DHT22;58320;48.804;9.252;2022-09-09T17:06:48;18.80;53.80
70734;DHT22;58320;48.804;9.252;2022-09-09T17:09:18;18.20;53.50
70734;DHT22;58320;48.804;9.252;2022-09-09T17:11:44;17.90;54.40
70734;DHT22;58320;48.804;9.252;2022-09-09T17:14:14;17.90;54.20
70734;DHT22;58320;48.804;9.252;2022-09-09T17:16:41;17.90;53.40
70734;DHT22;58320;48.804;9.252;2022-09-09T17:19:07;18.00;52.90
70734;DHT22;58320;48.804;9.252;2022-09-09T17:21:34;18.10;52.70
70734;DHT22;58320;48.804;9.252;2022-09-09T17:24:01;18.20;52.60
70734;DHT22;58320;48.804;9.252;2022-09-09T17:26:30;18.20;52.80
70734;DHT22;58320;48.804;9.252;2022-09-09T17:28:59;18.20;53.30
70734;DHT22;58320;48.804;9.252;2022-09-09T17:31:27;18.20;53.50
70734;DHT22;58320;48.804;9.252;2022-09-09T17:33:54;18.10;53.80
70734;DHT22;58320;48.804;9.252;2022-09-09T17:36:29;18.10;53.70
70734;DHT22;58320;48.804;9.252;2022-09-09T17:38:58;18.00;54.10
70734;DHT22;58320;48.804;9.252;2022-09-09T17:41:27;18.00;54.20
70734;DHT22;58320;48.804;9.252;2022-09-09T17:44:03;18.00;54.60
70734;DHT22;58320;48.804;9.252;2022-09-09T17:46:32;18.00;55.10
70734;DHT22;58320;48.804;9.252;2022-09-09T17:49:04;17.90;55.50
70734;DHT22;58320;48.804;9.252;2022-09-09T17:51:32;17.90;56.00
70734;DHT22;58320;48.804;9.252;2022-09-09T17:54:07;17.90;56.30
70734;DHT22;58320;48.804;9.252;2022-09-09T17:56:38;17.90;56.30
70734;DHT22;58320;48.804;9.252;2022-09-09T17:59:06;17.90;56.70
70734;DHT22;58320;48.804;9.252;2022-09-09T18:01:39;17.90;56.70
70734;DHT22;58320;48.804;9.252;2022-09-09T18:04:09;17.80;56.60
70734;DHT22;58320;48.804;9.252;2022-09-09T18:06:38;17.80;57.00
70734;DHT22;58320;48.804;9.252;2022-09-09T18:09:10;17.70;57.30
70734;DHT22;58320;48.804;9.252;2022-09-09T18:11:41;17.70;57.40
70734;DHT22;58320;48.804;9.252;2022-09-09T18:14:15;17.70;58.20
70734;DHT22;58320;48.804;9.252;2022-09-09T18:16:43;17.60;58.10
70734;DHT22;58320;48.804;9.252;2022-09-09T18:19:11;17.60;58.00
70734;DHT22;58320;48.804;9.252;2022-09-09T18:21:38;17.70;58.00
70734;DHT22;58320;48.804;9.252;2022-09-09T18:24:07;17.70;57.90
70734;DHT22;58320;48.804;9.252;2022-09-09T18:26:34;17.70;58.10
70734;DHT22;58320;48.804;9.252;2022-09-09T18:29:05;17.80;58.40
70734;DHT22;58320;48.804;9.252;2022-09-09T18:31:34;17.70;58.60